East Corinth, ME (04427)

1:44 AM EDT on September 01, 2015 (GMT -0400)
Stonyvale Farms | | Change Station
CLOSE
Current Station
Personal Weather Station
Location: Exeter, ME
Elevation: 269 ft
Nearby Weather Stations

Elev 269 ft 44.95 °N, 69.12 °W | Updated 10 minutes ago

Partly Cloudy
Partly Cloudy
63.7 °F
Feels Like 63.7 °F
N
3.0
Wind Variable Wind from WNW
Gusts 5.0 mph

Today
High -- | Low -- °F
--% Chance of Precip.
Yesterday
High -- | Low -- °F
Precip. -- in
5:57 AM 7:13 PM
Waning Gibbous, 91% visible
Pressure 29.91 in
Visibility 10.0 miles
Clouds Few 5000 ft
Scattered Clouds 20000 ft
Dew Point 57 °F
Humidity 80%
Rainfall 0.00 in
Snow Depth Not available.
UV 0 out of 12
Pollen 7.50 out of 12
Air Quality Not available.
Flu Activity Not available.
METAR KBGR 010453Z 32007KT 10SM FEW050 SCT200 17/13 A2992 RMK AO2 SLP127 T01720133 402780144
Pressure 29.91 in
Visibility 10.0 miles
Clouds Few 5000 ft
Scattered Clouds 20000 ft
Dew Point 57 °F
Humidity 80%
Rainfall 0.00 in
Snow Depth Not available.
UV 0 out of 12
Pollen 7.50 out of 12
Air Quality Not available.
Flu Activity Not available.
METAR KBGR 010453Z 32007KT 10SM FEW050 SCT200 17/13 A2992 RMK AO2 SLP127 T01720133 402780144

10-Day Weather Forecast

×

Almanac

Astronomy

Sep. 01, 2015 Rise Set
Actual Time
Civil Twilight
Nautical Twilight
Astronomical Twilight
Moon
Length of Visible Light
Length of Day
Tomorrow will be .
, % of the Moon is Illuminated

Today's Extremes

State Highs State Lows

Community

WunderPhotos

Upload Photos

1,851,484 photos uploaded!

WunderBlogs® & News

Nearby

Air Quality

  Air Quality AQ Index Pollutant
Not available.

Snow Depth

Station Depth Elevation

Earthquake Activity

City Distance Mag. Time & Date
Minimum magnitude displayed is 2.5.

Coastal Water Temperatures

Place Temperature

Stations

Nearby Weather Stations

Station Location Temp. Windchill Dew Point Humidity Wind Precip. Elev Updated Type